Airfield :
LOGIN :

Register | Disclaimer

   EN    FR    IT 

 










Legend :    VFR   Marginal VFR   IFR   Intensive IFR   Very Intensive IFR
Visi :
Ceiling :
>= 8 km
>= 3000ft
5 to 8 km
1000 to 3000 ft
1500m to 5 km
500 to 1000 ft
800 to 1500m
200 to 500 ft
< 800m
< 200 ft
Symbols :   Thunderstorms  Fog  Heavy snow  Heavy precipitations  Wind > 20 kt
SIGMETs :     Misc.  Thunderstorms  Icing  Turbulence  Mountain Waves  Volcanic Ashes







- Airport Elevation : 127 ft
- IATA code : JTR


LGSR - Santorini

CURRENT METAR :
  • 190850Z 34020KT 9999 BKN025 11/06 Q1018 RMK BKN080 BLU

EXPIRED METARs :
  • 190820Z 34025KT 9999 BKN025 11/05 Q1017
  • 190750Z 33025KT 9999 BKN025 10/05 Q1017
  • 190720Z 34022KT 9999 BKN025 10/05 Q1017
  • 190650Z 33022KT 9999 BKN025 10/05 Q1016
  • 190620Z 33025KT 9999 SCT025 10/05 Q1016

TAF TAF LGSR
Valid from the 19 at 06:00 until the 20 at 06:00 UTC


190500Z 1906/2006 36023KT 9999 SCT025
PROB30
TEMPO 1906/1909 5000 RA BKN025
TEMPO 1909/1921 35027G37KT
No reported NOTAMs for that airfield.



MET'MAP, your aeronautical weather chart ! - Copyright ORBIFLY December 2007 - Disclaimer

ORBIFLY MET'MAP TEAM :

Programming & Development : Alexandra Zaïnal
Concept & Development : Baudouin d'Aumeries
Co-Development & Prog : Marc-Olivier Méhu
Technical & hardware support : Manuel Goepfert

Contact : metmap@orbifly.com




SOURCES & CREDITS :

   NOAA